sensor_id;sensor_type;location;lat;lon;timestamp;P1;durP1;ratioP1;P2;durP2;ratioP2
5981;SDS011;3018;48.730;9.336;2022-07-23T00:00:39;10.15;;;5.03;;
5981;SDS011;3018;48.730;9.336;2022-07-23T00:03:05;4.90;;;4.47;;
5981;SDS011;3018;48.730;9.336;2022-07-23T00:05:32;4.80;;;4.50;;
5981;SDS011;3018;48.730;9.336;2022-07-23T00:07:58;6.90;;;4.75;;
5981;SDS011;3018;48.730;9.336;2022-07-23T00:10:24;5.60;;;4.85;;
5981;SDS011;3018;48.730;9.336;2022-07-23T00:12:50;5.07;;;4.55;;
5981;SDS011;3018;48.730;9.336;2022-07-23T00:15:18;4.40;;;4.10;;
5981;SDS011;3018;48.730;9.336;2022-07-23T00:17:44;4.70;;;4.25;;
5981;SDS011;3018;48.730;9.336;2022-07-23T00:20:11;4.97;;;3.83;;
5981;SDS011;3018;48.730;9.336;2022-07-23T00:22:44;4.78;;;3.85;;
5981;SDS011;3018;48.730;9.336;2022-07-23T00:25:11;4.38;;;3.90;;
5981;SDS011;3018;48.730;9.336;2022-07-23T00:27:37;6.10;;;4.20;;
5981;SDS011;3018;48.730;9.336;2022-07-23T00:30:04;4.95;;;4.07;;
5981;SDS011;3018;48.730;9.336;2022-07-23T00:32:31;4.00;;;3.80;;
5981;SDS011;3018;48.730;9.336;2022-07-23T00:34:58;4.18;;;3.97;;
5981;SDS011;3018;48.730;9.336;2022-07-23T00:37:24;4.32;;;3.92;;
5981;SDS011;3018;48.730;9.336;2022-07-23T00:39:51;4.68;;;4.38;;
5981;SDS011;3018;48.730;9.336;2022-07-23T00:42:17;4.35;;;4.05;;
5981;SDS011;3018;48.730;9.336;2022-07-23T00:44:43;4.03;;;3.80;;
5981;SDS011;3018;48.730;9.336;2022-07-23T00:47:09;4.07;;;3.78;;
5981;SDS011;3018;48.730;9.336;2022-07-23T00:49:37;4.03;;;3.72;;
5981;SDS011;3018;48.730;9.336;2022-07-23T00:52:03;2.83;;;2.70;;
5981;SDS011;3018;48.730;9.336;2022-07-23T00:54:31;3.35;;;3.15;;
5981;SDS011;3018;48.730;9.336;2022-07-23T00:56:57;3.17;;;3.00;;
5981;SDS011;3018;48.730;9.336;2022-07-23T00:59:23;4.75;;;2.97;;
5981;SDS011;3018;48.730;9.336;2022-07-23T01:01:50;2.78;;;2.67;;
5981;SDS011;3018;48.730;9.336;2022-07-23T01:04:16;5.13;;;2.85;;
5981;SDS011;3018;48.730;9.336;2022-07-23T01:06:44;3.13;;;2.80;;
5981;SDS011;3018;48.730;9.336;2022-07-23T01:09:10;2.80;;;2.70;;
5981;SDS011;3018;48.730;9.336;2022-07-23T01:11:37;2.67;;;2.50;;
5981;SDS011;3018;48.730;9.336;2022-07-23T01:14:14;2.70;;;2.50;;
5981;SDS011;3018;48.730;9.336;2022-07-23T01:16:40;3.25;;;3.08;;
5981;SDS011;3018;48.730;9.336;2022-07-23T01:19:07;2.80;;;2.60;;
5981;SDS011;3018;48.730;9.336;2022-07-23T01:21:37;3.45;;;2.75;;
5981;SDS011;3018;48.730;9.336;2022-07-23T01:24:05;2.67;;;2.53;;
5981;SDS011;3018;48.730;9.336;2022-07-23T01:26:32;2.90;;;2.80;;
5981;SDS011;3018;48.730;9.336;2022-07-23T01:28:58;2.67;;;2.45;;
5981;SDS011;3018;48.730;9.336;2022-07-23T01:31:24;3.63;;;3.00;;
5981;SDS011;3018;48.730;9.336;2022-07-23T01:33:51;2.88;;;2.67;;
5981;SDS011;3018;48.730;9.336;2022-07-23T01:36:17;2.92;;;2.80;;
5981;SDS011;3018;48.730;9.336;2022-07-23T01:38:43;3.38;;;2.95;;
5981;SDS011;3018;48.730;9.336;2022-07-23T01:41:11;3.47;;;3.17;;
5981;SDS011;3018;48.730;9.336;2022-07-23T01:43:37;2.88;;;2.78;;
5981;SDS011;3018;48.730;9.336;2022-07-23T01:46:03;3.97;;;2.95;;
5981;SDS011;3018;48.730;9.336;2022-07-23T01:48:30;4.78;;;2.75;;
5981;SDS011;3018;48.730;9.336;2022-07-23T01:50:56;3.22;;;3.00;;
5981;SDS011;3018;48.730;9.336;2022-07-23T01:53:22;3.03;;;2.92;;
5981;SDS011;3018;48.730;9.336;2022-07-23T01:55:48;3.13;;;3.03;;
5981;SDS011;3018;48.730;9.336;2022-07-23T01:58:16;3.45;;;3.15;;
5981;SDS011;3018;48.730;9.336;2022-07-23T02:00:42;3.40;;;3.25;;
5981;SDS011;3018;48.730;9.336;2022-07-23T02:03:09;3.65;;;3.22;;
5981;SDS011;3018;48.730;9.336;2022-07-23T02:05:35;3.38;;;3.28;;
5981;SDS011;3018;48.730;9.336;2022-07-23T02:08:01;3.78;;;3.30;;
5981;SDS011;3018;48.730;9.336;2022-07-23T02:10:27;4.00;;;3.70;;
5981;SDS011;3018;48.730;9.336;2022-07-23T02:12:54;4.10;;;3.35;;
5981;SDS011;3018;48.730;9.336;2022-07-23T02:15:21;3.63;;;3.33;;
5981;SDS011;3018;48.730;9.336;2022-07-23T02:17:48;3.33;;;3.22;;
5981;SDS011;3018;48.730;9.336;2022-07-23T02:20:15;3.25;;;3.08;;
5981;SDS011;3018;48.730;9.336;2022-07-23T02:22:41;3.30;;;3.10;;
5981;SDS011;3018;48.730;9.336;2022-07-23T02:25:07;3.17;;;3.03;;
5981;SDS011;3018;48.730;9.336;2022-07-23T02:27:34;3.50;;;3.22;;
5981;SDS011;3018;48.730;9.336;2022-07-23T02:30:00;3.28;;;3.08;;
5981;SDS011;3018;48.730;9.336;2022-07-23T02:32:28;3.42;;;3.30;;
5981;SDS011;3018;48.730;9.336;2022-07-23T02:34:54;3.95;;;3.45;;
5981;SDS011;3018;48.730;9.336;2022-07-23T02:37:20;3.60;;;3.40;;
5981;SDS011;3018;48.730;9.336;2022-07-23T02:39:46;3.80;;;2.90;;
5981;SDS011;3018;48.730;9.336;2022-07-23T02:42:13;3.83;;;3.50;;
5981;SDS011;3018;48.730;9.336;2022-07-23T02:44:40;3.85;;;3.35;;
5981;SDS011;3018;48.730;9.336;2022-07-23T02:47:06;3.95;;;3.28;;
5981;SDS011;3018;48.730;9.336;2022-07-23T02:49:34;4.40;;;3.40;;
5981;SDS011;3018;48.730;9.336;2022-07-23T02:52:01;3.30;;;3.10;;
5981;SDS011;3018;48.730;9.336;2022-07-23T02:54:27;3.17;;;3.08;;
5981;SDS011;3018;48.730;9.336;2022-07-23T02:56:53;3.85;;;3.55;;
5981;SDS011;3018;48.730;9.336;2022-07-23T02:59:20;3.25;;;3.10;;
5981;SDS011;3018;48.730;9.336;2022-07-23T03:01:46;3.88;;;3.58;;
5981;SDS011;3018;48.730;9.336;2022-07-23T03:04:12;3.67;;;3.38;;
5981;SDS011;3018;48.730;9.336;2022-07-23T03:06:40;3.40;;;3.20;;
5981;SDS011;3018;48.730;9.336;2022-07-23T03:09:06;4.30;;;3.53;;
5981;SDS011;3018;48.730;9.336;2022-07-23T03:11:32;3.70;;;3.50;;
5981;SDS011;3018;48.730;9.336;2022-07-23T03:13:59;3.58;;;3.40;;
5981;SDS011;3018;48.730;9.336;2022-07-23T03:16:25;4.00;;;3.70;;
5981;SDS011;3018;48.730;9.336;2022-07-23T03:18:51;3.70;;;3.40;;
5981;SDS011;3018;48.730;9.336;2022-07-23T03:21:17;3.55;;;3.38;;
5981;SDS011;3018;48.730;9.336;2022-07-23T03:23:45;3.70;;;3.50;;
5981;SDS011;3018;48.730;9.336;2022-07-23T03:26:11;3.50;;;3.22;;
5981;SDS011;3018;48.730;9.336;2022-07-23T03:28:37;3.75;;;3.45;;
5981;SDS011;3018;48.730;9.336;2022-07-23T03:31:03;4.07;;;3.80;;
5981;SDS011;3018;48.730;9.336;2022-07-23T03:33:30;4.30;;;4.00;;
5981;SDS011;3018;48.730;9.336;2022-07-23T03:35:56;4.07;;;3.60;;
5981;SDS011;3018;48.730;9.336;2022-07-23T03:38:22;3.80;;;3.55;;
5981;SDS011;3018;48.730;9.336;2022-07-23T03:40:50;3.67;;;3.38;;
5981;SDS011;3018;48.730;9.336;2022-07-23T03:43:16;4.60;;;4.00;;
5981;SDS011;3018;48.730;9.336;2022-07-23T03:45:42;6.00;;;5.40;;
5981;SDS011;3018;48.730;9.336;2022-07-23T03:48:08;9.88;;;6.88;;
5981;SDS011;3018;48.730;9.336;2022-07-23T03:50:35;5.60;;;5.10;;
5981;SDS011;3018;48.730;9.336;2022-07-23T03:53:02;4.32;;;4.05;;
5981;SDS011;3018;48.730;9.336;2022-07-23T03:55:28;5.25;;;4.80;;
5981;SDS011;3018;48.730;9.336;2022-07-23T03:57:56;5.65;;;5.15;;
5981;SDS011;3018;48.730;9.336;2022-07-23T04:00:22;5.28;;;4.88;;
5981;SDS011;3018;48.730;9.336;2022-07-23T04:02:48;4.53;;;4.22;;
5981;SDS011;3018;48.730;9.336;2022-07-23T04:05:14;6.32;;;4.00;;
5981;SDS011;3018;48.730;9.336;2022-07-23T04:07:41;4.95;;;4.50;;
5981;SDS011;3018;48.730;9.336;2022-07-23T04:10:08;4.78;;;4.30;;
5981;SDS011;3018;48.730;9.336;2022-07-23T04:12:34;4.25;;;4.03;;
5981;SDS011;3018;48.730;9.336;2022-07-23T04:15:02;4.10;;;3.80;;
5981;SDS011;3018;48.730;9.336;2022-07-23T04:17:29;4.70;;;4.40;;
5981;SDS011;3018;48.730;9.336;2022-07-23T04:19:55;4.57;;;4.28;;
5981;SDS011;3018;48.730;9.336;2022-07-23T04:22:21;4.80;;;4.20;;
5981;SDS011;3018;48.730;9.336;2022-07-23T04:24:47;4.43;;;3.88;;
5981;SDS011;3018;48.730;9.336;2022-07-23T04:27:14;4.70;;;4.30;;
5981;SDS011;3018;48.730;9.336;2022-07-23T04:29:40;4.93;;;4.15;;
5981;SDS011;3018;48.730;9.336;2022-07-23T04:32:08;4.85;;;4.40;;
5981;SDS011;3018;48.730;9.336;2022-07-23T04:34:34;5.93;;;4.22;;
5981;SDS011;3018;48.730;9.336;2022-07-23T04:37:00;4.45;;;4.05;;
5981;SDS011;3018;48.730;9.336;2022-07-23T04:39:26;5.25;;;4.50;;
5981;SDS011;3018;48.730;9.336;2022-07-23T04:41:53;5.97;;;4.30;;
5981;SDS011;3018;48.730;9.336;2022-07-23T04:44:19;5.53;;;4.60;;
5981;SDS011;3018;48.730;9.336;2022-07-23T04:46:45;5.72;;;4.65;;
5981;SDS011;3018;48.730;9.336;2022-07-23T04:49:13;6.35;;;4.15;;
5981;SDS011;3018;48.730;9.336;2022-07-23T04:51:39;4.30;;;4.05;;
5981;SDS011;3018;48.730;9.336;2022-07-23T04:54:05;4.05;;;3.85;;
5981;SDS011;3018;48.730;9.336;2022-07-23T04:56:31;4.82;;;4.40;;
5981;SDS011;3018;48.730;9.336;2022-07-23T04:58:57;5.25;;;4.03;;
5981;SDS011;3018;48.730;9.336;2022-07-23T05:01:24;5.03;;;4.63;;
5981;SDS011;3018;48.730;9.336;2022-07-23T05:03:50;4.55;;;4.25;;
5981;SDS011;3018;48.730;9.336;2022-07-23T05:06:18;4.40;;;4.20;;
5981;SDS011;3018;48.730;9.336;2022-07-23T05:08:44;5.10;;;4.70;;
5981;SDS011;3018;48.730;9.336;2022-07-23T05:11:10;4.90;;;4.60;;
5981;SDS011;3018;48.730;9.336;2022-07-23T05:13:36;6.82;;;4.85;;
5981;SDS011;3018;48.730;9.336;2022-07-23T05:16:03;5.30;;;4.80;;
5981;SDS011;3018;48.730;9.336;2022-07-23T05:18:29;4.90;;;4.60;;
5981;SDS011;3018;48.730;9.336;2022-07-23T05:20:55;5.18;;;4.75;;
5981;SDS011;3018;48.730;9.336;2022-07-23T05:23:23;5.25;;;4.50;;
5981;SDS011;3018;48.730;9.336;2022-07-23T05:25:49;5.13;;;4.50;;
5981;SDS011;3018;48.730;9.336;2022-07-23T05:28:16;6.03;;;5.40;;
5981;SDS011;3018;48.730;9.336;2022-07-23T05:30:42;5.70;;;5.10;;
5981;SDS011;3018;48.730;9.336;2022-07-23T05:33:08;5.38;;;4.93;;
5981;SDS011;3018;48.730;9.336;2022-07-23T05:35:34;5.18;;;4.50;;
5981;SDS011;3018;48.730;9.336;2022-07-23T05:38:01;4.85;;;4.47;;
5981;SDS011;3018;48.730;9.336;2022-07-23T05:40:28;11.23;;;6.15;;
5981;SDS011;3018;48.730;9.336;2022-07-23T05:42:54;5.30;;;5.00;;
5981;SDS011;3018;48.730;9.336;2022-07-23T05:45:21;5.97;;;4.70;;
5981;SDS011;3018;48.730;9.336;2022-07-23T05:47:48;5.32;;;4.82;;
5981;SDS011;3018;48.730;9.336;2022-07-23T05:50:15;5.28;;;4.78;;
5981;SDS011;3018;48.730;9.336;2022-07-23T05:52:41;5.93;;;5.43;;
5981;SDS011;3018;48.730;9.336;2022-07-23T05:55:08;5.15;;;4.65;;
5981;SDS011;3018;48.730;9.336;2022-07-23T05:57:36;4.95;;;4.43;;
5981;SDS011;3018;48.730;9.336;2022-07-23T06:00:03;6.93;;;5.22;;
5981;SDS011;3018;48.730;9.336;2022-07-23T06:02:30;5.53;;;4.80;;
5981;SDS011;3018;48.730;9.336;2022-07-23T06:04:56;5.43;;;5.10;;
5981;SDS011;3018;48.730;9.336;2022-07-23T06:07:22;5.20;;;4.80;;
5981;SDS011;3018;48.730;9.336;2022-07-23T06:09:48;5.07;;;4.75;;
5981;SDS011;3018;48.730;9.336;2022-07-23T06:12:15;5.85;;;5.45;;
5981;SDS011;3018;48.730;9.336;2022-07-23T06:14:42;4.90;;;4.60;;
5981;SDS011;3018;48.730;9.336;2022-07-23T06:17:08;5.72;;;5.22;;
5981;SDS011;3018;48.730;9.336;2022-07-23T06:19:35;6.30;;;5.80;;
5981;SDS011;3018;48.730;9.336;2022-07-23T06:22:01;5.13;;;4.72;;
5981;SDS011;3018;48.730;9.336;2022-07-23T06:24:27;7.47;;;5.80;;
5981;SDS011;3018;48.730;9.336;2022-07-23T06:26:53;6.00;;;5.50;;
5981;SDS011;3018;48.730;9.336;2022-07-23T06:29:20;6.10;;;5.50;;
5981;SDS011;3018;48.730;9.336;2022-07-23T06:31:47;5.78;;;5.38;;
5981;SDS011;3018;48.730;9.336;2022-07-23T06:34:13;6.85;;;5.22;;
5981;SDS011;3018;48.730;9.336;2022-07-23T06:36:40;5.97;;;5.57;;
5981;SDS011;3018;48.730;9.336;2022-07-23T06:39:06;5.97;;;5.57;;
5981;SDS011;3018;48.730;9.336;2022-07-23T06:41:32;6.13;;;5.57;;
5981;SDS011;3018;48.730;9.336;2022-07-23T06:43:58;5.80;;;5.30;;
5981;SDS011;3018;48.730;9.336;2022-07-23T06:46:25;6.53;;;5.85;;
5981;SDS011;3018;48.730;9.336;2022-07-23T06:48:52;8.00;;;5.20;;
5981;SDS011;3018;48.730;9.336;2022-07-23T06:51:18;5.90;;;5.50;;
5981;SDS011;3018;48.730;9.336;2022-07-23T06:53:45;6.30;;;5.68;;
5981;SDS011;3018;48.730;9.336;2022-07-23T06:56:11;5.72;;;5.32;;
5981;SDS011;3018;48.730;9.336;2022-07-23T06:58:37;6.22;;;5.78;;
5981;SDS011;3018;48.730;9.336;2022-07-23T07:01:03;5.93;;;5.40;;
5981;SDS011;3018;48.730;9.336;2022-07-23T07:03:30;5.82;;;5.35;;
5981;SDS011;3018;48.730;9.336;2022-07-23T07:05:57;6.22;;;5.68;;
5981;SDS011;3018;48.730;9.336;2022-07-23T07:08:23;6.45;;;5.93;;
5981;SDS011;3018;48.730;9.336;2022-07-23T07:10:50;5.90;;;5.50;;
5981;SDS011;3018;48.730;9.336;2022-07-23T07:13:16;6.63;;;5.97;;
5981;SDS011;3018;48.730;9.336;2022-07-23T07:15:42;6.43;;;5.50;;
5981;SDS011;3018;48.730;9.336;2022-07-23T07:18:08;5.72;;;5.28;;
5981;SDS011;3018;48.730;9.336;2022-07-23T07:20:35;6.93;;;5.50;;
5981;SDS011;3018;48.730;9.336;2022-07-23T07:23:02;6.60;;;5.40;;
5981;SDS011;3018;48.730;9.336;2022-07-23T07:25:29;5.97;;;5.43;;
5981;SDS011;3018;48.730;9.336;2022-07-23T07:27:55;5.88;;;5.45;;
5981;SDS011;3018;48.730;9.336;2022-07-23T07:30:21;5.80;;;5.30;;
5981;SDS011;3018;48.730;9.336;2022-07-23T07:32:47;6.03;;;4.75;;
5981;SDS011;3018;48.730;9.336;2022-07-23T07:35:14;5.57;;;4.72;;
5981;SDS011;3018;48.730;9.336;2022-07-23T07:37:40;6.30;;;5.80;;
5981;SDS011;3018;48.730;9.336;2022-07-23T07:40:08;5.57;;;5.18;;
5981;SDS011;3018;48.730;9.336;2022-07-23T07:42:34;5.30;;;4.88;;
5981;SDS011;3018;48.730;9.336;2022-07-23T07:45:01;6.15;;;4.72;;
5981;SDS011;3018;48.730;9.336;2022-07-23T07:47:27;5.63;;;4.85;;
5981;SDS011;3018;48.730;9.336;2022-07-23T07:49:53;9.25;;;5.68;;
5981;SDS011;3018;48.730;9.336;2022-07-23T07:52:19;5.38;;;4.95;;
5981;SDS011;3018;48.730;9.336;2022-07-23T07:54:46;4.80;;;4.55;;
5981;SDS011;3018;48.730;9.336;2022-07-23T07:57:13;6.53;;;4.80;;
5981;SDS011;3018;48.730;9.336;2022-07-23T07:59:40;7.90;;;5.00;;
5981;SDS011;3018;48.730;9.336;2022-07-23T08:02:06;7.30;;;5.07;;
5981;SDS011;3018;48.730;9.336;2022-07-23T08:04:32;5.38;;;5.07;;
5981;SDS011;3018;48.730;9.336;2022-07-23T08:06:59;5.45;;;4.95;;
5981;SDS011;3018;48.730;9.336;2022-07-23T08:09:25;5.32;;;4.88;;
5981;SDS011;3018;48.730;9.336;2022-07-23T08:11:51;6.90;;;4.85;;
5981;SDS011;3018;48.730;9.336;2022-07-23T08:14:19;4.80;;;4.50;;
5981;SDS011;3018;48.730;9.336;2022-07-23T08:16:45;5.10;;;4.60;;
5981;SDS011;3018;48.730;9.336;2022-07-23T08:19:11;5.05;;;4.70;;
5981;SDS011;3018;48.730;9.336;2022-07-23T08:21:38;4.85;;;4.47;;
5981;SDS011;3018;48.730;9.336;2022-07-23T08:24:04;4.93;;;4.53;;
5981;SDS011;3018;48.730;9.336;2022-07-23T08:26:30;5.88;;;5.00;;
5981;SDS011;3018;48.730;9.336;2022-07-23T08:28:57;5.97;;;5.15;;
5981;SDS011;3018;48.730;9.336;2022-07-23T08:31:24;7.45;;;5.28;;
5981;SDS011;3018;48.730;9.336;2022-07-23T08:33:50;6.20;;;5.70;;
5981;SDS011;3018;48.730;9.336;2022-07-23T08:36:17;7.00;;;5.65;;
5981;SDS011;3018;48.730;9.336;2022-07-23T08:38:44;5.80;;;5.35;;
5981;SDS011;3018;48.730;9.336;2022-07-23T08:41:10;5.80;;;5.30;;
5981;SDS011;3018;48.730;9.336;2022-07-23T08:43:36;6.20;;;5.60;;
5981;SDS011;3018;48.730;9.336;2022-07-23T08:46:03;6.15;;;5.60;;
5981;SDS011;3018;48.730;9.336;2022-07-23T08:48:32;6.95;;;5.63;;
5981;SDS011;3018;48.730;9.336;2022-07-23T08:51:00;5.65;;;5.25;;
5981;SDS011;3018;48.730;9.336;2022-07-23T08:53:27;7.03;;;5.55;;
5981;SDS011;3018;48.730;9.336;2022-07-23T08:55:54;5.97;;;5.45;;
5981;SDS011;3018;48.730;9.336;2022-07-23T08:58:21;6.20;;;5.68;;
5981;SDS011;3018;48.730;9.336;2022-07-23T09:00:47;6.05;;;5.47;;
5981;SDS011;3018;48.730;9.336;2022-07-23T09:03:14;6.57;;;6.05;;
5981;SDS011;3018;48.730;9.336;2022-07-23T09:05:43;5.95;;;5.45;;
5981;SDS011;3018;48.730;9.336;2022-07-23T09:08:10;8.02;;;5.80;;
5981;SDS011;3018;48.730;9.336;2022-07-23T09:10:50;6.47;;;6.00;;
5981;SDS011;3018;48.730;9.336;2022-07-23T09:13:23;6.63;;;6.00;;
5981;SDS011;3018;48.730;9.336;2022-07-23T09:15:50;7.60;;;5.47;;
5981;SDS011;3018;48.730;9.336;2022-07-23T09:18:16;5.47;;;5.00;;
5981;SDS011;3018;48.730;9.336;2022-07-23T09:20:44;5.50;;;5.00;;
5981;SDS011;3018;48.730;9.336;2022-07-23T09:23:10;5.88;;;5.38;;
5981;SDS011;3018;48.730;9.336;2022-07-23T09:25:36;6.15;;;5.53;;
5981;SDS011;3018;48.730;9.336;2022-07-23T09:28:03;6.32;;;5.80;;
5981;SDS011;3018;48.730;9.336;2022-07-23T09:30:32;8.05;;;5.47;;
5981;SDS011;3018;48.730;9.336;2022-07-23T09:33:08;5.68;;;5.18;;
5981;SDS011;3018;48.730;9.336;2022-07-23T09:35:47;9.82;;;5.65;;
5981;SDS011;3018;48.730;9.336;2022-07-23T09:38:13;6.28;;;5.03;;
5981;SDS011;3018;48.730;9.336;2022-07-23T09:40:40;5.88;;;5.38;;
5981;SDS011;3018;48.730;9.336;2022-07-23T09:43:06;5.60;;;5.20;;
5981;SDS011;3018;48.730;9.336;2022-07-23T09:45:33;5.70;;;5.18;;
5981;SDS011;3018;48.730;9.336;2022-07-23T09:48:09;5.82;;;5.30;;
5981;SDS011;3018;48.730;9.336;2022-07-23T09:50:36;4.80;;;4.50;;
5981;SDS011;3018;48.730;9.336;2022-07-23T09:53:03;5.65;;;5.18;;
5981;SDS011;3018;48.730;9.336;2022-07-23T09:55:31;4.40;;;4.10;;
5981;SDS011;3018;48.730;9.336;2022-07-23T09:58:00;5.15;;;4.90;;
5981;SDS011;3018;48.730;9.336;2022-07-23T10:00:27;5.22;;;4.90;;
5981;SDS011;3018;48.730;9.336;2022-07-23T10:02:53;6.75;;;4.88;;
5981;SDS011;3018;48.730;9.336;2022-07-23T10:05:19;5.47;;;5.00;;
5981;SDS011;3018;48.730;9.336;2022-07-23T10:07:46;4.90;;;4.53;;
5981;SDS011;3018;48.730;9.336;2022-07-23T10:10:14;5.20;;;4.90;;
5981;SDS011;3018;48.730;9.336;2022-07-23T10:12:42;6.90;;;5.38;;
5981;SDS011;3018;48.730;9.336;2022-07-23T10:15:17;5.07;;;4.72;;
5981;SDS011;3018;48.730;9.336;2022-07-23T10:17:43;5.38;;;5.07;;
5981;SDS011;3018;48.730;9.336;2022-07-23T10:20:09;6.68;;;4.63;;
5981;SDS011;3018;48.730;9.336;2022-07-23T10:22:36;5.10;;;4.78;;
5981;SDS011;3018;48.730;9.336;2022-07-23T10:25:08;5.38;;;4.88;;
5981;SDS011;3018;48.730;9.336;2022-07-23T10:27:39;6.40;;;4.93;;
5981;SDS011;3018;48.730;9.336;2022-07-23T10:30:09;5.38;;;4.90;;
5981;SDS011;3018;48.730;9.336;2022-07-23T10:32:37;4.15;;;3.97;;
5981;SDS011;3018;48.730;9.336;2022-07-23T10:35:07;17.13;;;15.38;;
5981;SDS011;3018;48.730;9.336;2022-07-23T10:37:36;6.55;;;6.05;;
5981;SDS011;3018;48.730;9.336;2022-07-23T10:40:11;6.20;;;5.70;;
5981;SDS011;3018;48.730;9.336;2022-07-23T10:42:39;5.07;;;4.57;;
5981;SDS011;3018;48.730;9.336;2022-07-23T10:45:22;5.63;;;4.50;;
5981;SDS011;3018;48.730;9.336;2022-07-23T10:47:49;5.00;;;4.60;;
5981;SDS011;3018;48.730;9.336;2022-07-23T10:50:20;4.97;;;4.47;;
5981;SDS011;3018;48.730;9.336;2022-07-23T10:55:42;4.97;;;4.68;;
5981;SDS011;3018;48.730;9.336;2022-07-23T10:58:09;4.32;;;4.03;;
5981;SDS011;3018;48.730;9.336;2022-07-23T11:00:36;4.60;;;4.30;;
5981;SDS011;3018;48.730;9.336;2022-07-23T11:03:03;4.75;;;4.45;;
5981;SDS011;3018;48.730;9.336;2022-07-23T11:05:39;5.22;;;4.70;;
5981;SDS011;3018;48.730;9.336;2022-07-23T11:10:51;4.53;;;4.18;;
5981;SDS011;3018;48.730;9.336;2022-07-23T11:13:29;7.30;;;4.50;;
5981;SDS011;3018;48.730;9.336;2022-07-23T11:16:13;4.90;;;4.60;;
5981;SDS011;3018;48.730;9.336;2022-07-23T11:21:43;4.70;;;4.40;;
5981;SDS011;3018;48.730;9.336;2022-07-23T11:24:10;4.90;;;4.60;;
5981;SDS011;3018;48.730;9.336;2022-07-23T11:26:43;5.00;;;4.63;;
5981;SDS011;3018;48.730;9.336;2022-07-23T11:31:52;5.13;;;4.72;;
5981;SDS011;3018;48.730;9.336;2022-07-23T11:34:27;4.80;;;4.28;;
5981;SDS011;3018;48.730;9.336;2022-07-23T11:36:54;5.00;;;4.43;;
5981;SDS011;3018;48.730;9.336;2022-07-23T11:39:20;4.95;;;4.55;;
5981;SDS011;3018;48.730;9.336;2022-07-23T11:41:46;4.40;;;4.00;;
5981;SDS011;3018;48.730;9.336;2022-07-23T11:44:23;4.38;;;4.10;;
5981;SDS011;3018;48.730;9.336;2022-07-23T11:46:55;4.97;;;4.68;;
5981;SDS011;3018;48.730;9.336;2022-07-23T11:49:21;4.93;;;4.50;;
5981;SDS011;3018;48.730;9.336;2022-07-23T11:51:53;5.05;;;4.57;;
5981;SDS011;3018;48.730;9.336;2022-07-23T11:54:27;4.53;;;4.18;;
5981;SDS011;3018;48.730;9.336;2022-07-23T11:56:57;4.97;;;4.63;;
5981;SDS011;3018;48.730;9.336;2022-07-23T11:59:23;4.43;;;4.03;;
5981;SDS011;3018;48.730;9.336;2022-07-23T12:01:58;4.68;;;4.38;;
5981;SDS011;3018;48.730;9.336;2022-07-23T12:04:24;5.07;;;4.68;;
5981;SDS011;3018;48.730;9.336;2022-07-23T12:06:51;4.60;;;4.30;;
5981;SDS011;3018;48.730;9.336;2022-07-23T12:09:17;4.55;;;4.30;;
5981;SDS011;3018;48.730;9.336;2022-07-23T12:11:56;4.50;;;4.30;;
5981;SDS011;3018;48.730;9.336;2022-07-23T12:14:22;4.95;;;4.60;;
5981;SDS011;3018;48.730;9.336;2022-07-23T12:17:01;5.00;;;4.57;;
5981;SDS011;3018;48.730;9.336;2022-07-23T12:19:32;4.82;;;4.63;;
5981;SDS011;3018;48.730;9.336;2022-07-23T12:21:58;5.85;;;4.40;;
5981;SDS011;3018;48.730;9.336;2022-07-23T12:24:25;4.18;;;3.97;;
5981;SDS011;3018;48.730;9.336;2022-07-23T12:27:09;4.25;;;3.97;;
5981;SDS011;3018;48.730;9.336;2022-07-23T12:29:36;4.57;;;4.38;;
5981;SDS011;3018;48.730;9.336;2022-07-23T12:32:04;4.47;;;4.10;;
5981;SDS011;3018;48.730;9.336;2022-07-23T12:34:40;4.78;;;4.47;;
5981;SDS011;3018;48.730;9.336;2022-07-23T12:37:07;4.97;;;4.55;;
5981;SDS011;3018;48.730;9.336;2022-07-23T12:39:33;4.43;;;4.22;;
5981;SDS011;3018;48.730;9.336;2022-07-23T12:41:59;4.60;;;4.30;;
5981;SDS011;3018;48.730;9.336;2022-07-23T12:44:25;4.20;;;4.00;;
5981;SDS011;3018;48.730;9.336;2022-07-23T12:46:52;5.25;;;4.68;;
5981;SDS011;3018;48.730;9.336;2022-07-23T12:49:26;4.07;;;3.88;;
5981;SDS011;3018;48.730;9.336;2022-07-23T12:51:52;4.38;;;4.10;;
5981;SDS011;3018;48.730;9.336;2022-07-23T12:54:19;4.60;;;4.30;;
5981;SDS011;3018;48.730;9.336;2022-07-23T12:56:52;4.45;;;4.15;;
5981;SDS011;3018;48.730;9.336;2022-07-23T12:59:18;5.63;;;4.97;;
5981;SDS011;3018;48.730;9.336;2022-07-23T13:01:45;4.90;;;4.60;;
5981;SDS011;3018;48.730;9.336;2022-07-23T13:04:19;4.70;;;4.40;;
5981;SDS011;3018;48.730;9.336;2022-07-23T13:06:48;7.50;;;4.97;;
5981;SDS011;3018;48.730;9.336;2022-07-23T13:09:15;4.55;;;4.35;;
5981;SDS011;3018;48.730;9.336;2022-07-23T13:11:42;5.70;;;4.85;;
5981;SDS011;3018;48.730;9.336;2022-07-23T13:14:08;4.80;;;4.40;;
5981;SDS011;3018;48.730;9.336;2022-07-23T13:16:35;5.15;;;4.22;;
5981;SDS011;3018;48.730;9.336;2022-07-23T13:19:01;4.90;;;4.60;;
5981;SDS011;3018;48.730;9.336;2022-07-23T13:21:28;5.10;;;4.75;;
5981;SDS011;3018;48.730;9.336;2022-07-23T13:23:56;4.82;;;4.60;;
5981;SDS011;3018;48.730;9.336;2022-07-23T13:26:22;4.50;;;4.30;;
5981;SDS011;3018;48.730;9.336;2022-07-23T13:28:48;5.05;;;4.63;;
5981;SDS011;3018;48.730;9.336;2022-07-23T13:31:15;5.25;;;4.80;;
5981;SDS011;3018;48.730;9.336;2022-07-23T13:33:42;4.95;;;4.65;;
5981;SDS011;3018;48.730;9.336;2022-07-23T13:36:08;5.63;;;5.22;;
5981;SDS011;3018;48.730;9.336;2022-07-23T13:38:35;4.80;;;4.50;;
5981;SDS011;3018;48.730;9.336;2022-07-23T13:41:02;5.00;;;4.60;;
5981;SDS011;3018;48.730;9.336;2022-07-23T13:43:29;5.13;;;4.22;;
5981;SDS011;3018;48.730;9.336;2022-07-23T13:45:55;5.53;;;5.03;;
5981;SDS011;3018;48.730;9.336;2022-07-23T13:48:22;5.88;;;4.63;;
5981;SDS011;3018;48.730;9.336;2022-07-23T13:50:49;4.68;;;4.47;;
5981;SDS011;3018;48.730;9.336;2022-07-23T13:53:17;5.38;;;4.88;;
5981;SDS011;3018;48.730;9.336;2022-07-23T13:55:44;5.00;;;4.60;;
5981;SDS011;3018;48.730;9.336;2022-07-23T13:58:12;5.20;;;4.90;;
5981;SDS011;3018;48.730;9.336;2022-07-23T14:00:39;5.57;;;5.25;;
5981;SDS011;3018;48.730;9.336;2022-07-23T14:03:05;4.90;;;4.60;;
5981;SDS011;3018;48.730;9.336;2022-07-23T14:05:32;6.82;;;4.90;;
5981;SDS011;3018;48.730;9.336;2022-07-23T14:07:58;5.50;;;5.10;;
5981;SDS011;3018;48.730;9.336;2022-07-23T14:10:25;5.32;;;4.93;;
5981;SDS011;3018;48.730;9.336;2022-07-23T14:12:51;5.70;;;5.05;;
5981;SDS011;3018;48.730;9.336;2022-07-23T14:15:22;5.43;;;4.93;;
5981;SDS011;3018;48.730;9.336;2022-07-23T14:17:49;5.65;;;5.28;;
5981;SDS011;3018;48.730;9.336;2022-07-23T14:20:15;4.72;;;4.53;;
5981;SDS011;3018;48.730;9.336;2022-07-23T14:22:42;4.57;;;4.30;;
5981;SDS011;3018;48.730;9.336;2022-07-23T14:25:08;5.30;;;4.88;;
5981;SDS011;3018;48.730;9.336;2022-07-23T14:27:35;5.00;;;4.55;;
5981;SDS011;3018;48.730;9.336;2022-07-23T14:30:02;5.53;;;4.55;;
5981;SDS011;3018;48.730;9.336;2022-07-23T14:32:30;5.68;;;5.25;;
5981;SDS011;3018;48.730;9.336;2022-07-23T14:34:56;6.15;;;5.53;;
5981;SDS011;3018;48.730;9.336;2022-07-23T14:37:23;6.10;;;5.50;;
5981;SDS011;3018;48.730;9.336;2022-07-23T14:39:49;5.72;;;5.07;;
5981;SDS011;3018;48.730;9.336;2022-07-23T14:42:16;6.50;;;6.00;;
5981;SDS011;3018;48.730;9.336;2022-07-23T14:44:42;6.35;;;5.88;;
5981;SDS011;3018;48.730;9.336;2022-07-23T14:47:08;5.97;;;5.53;;
5981;SDS011;3018;48.730;9.336;2022-07-23T14:49:36;6.03;;;5.53;;
5981;SDS011;3018;48.730;9.336;2022-07-23T14:52:03;5.40;;;5.10;;
5981;SDS011;3018;48.730;9.336;2022-07-23T14:54:30;6.07;;;5.55;;
5981;SDS011;3018;48.730;9.336;2022-07-23T14:56:56;5.55;;;5.18;;
5981;SDS011;3018;48.730;9.336;2022-07-23T14:59:23;6.90;;;5.53;;
5981;SDS011;3018;48.730;9.336;2022-07-23T15:01:49;5.78;;;5.25;;
5981;SDS011;3018;48.730;9.336;2022-07-23T15:04:16;7.18;;;5.32;;
5981;SDS011;3018;48.730;9.336;2022-07-23T15:06:44;5.68;;;5.28;;
5981;SDS011;3018;48.730;9.336;2022-07-23T15:09:10;5.63;;;5.22;;
5981;SDS011;3018;48.730;9.336;2022-07-23T15:11:36;5.70;;;5.30;;
5981;SDS011;3018;48.730;9.336;2022-07-23T15:14:03;5.82;;;5.45;;
5981;SDS011;3018;48.730;9.336;2022-07-23T15:16:29;7.03;;;5.80;;
5981;SDS011;3018;48.730;9.336;2022-07-23T15:18:55;7.03;;;6.43;;
5981;SDS011;3018;48.730;9.336;2022-07-23T15:21:22;6.70;;;6.07;;
5981;SDS011;3018;48.730;9.336;2022-07-23T15:23:50;6.68;;;6.18;;
5981;SDS011;3018;48.730;9.336;2022-07-23T15:26:17;6.10;;;5.80;;